Latest Weather Observations for Temora

IDN60801

Issued at 1:05 pm EST Friday 29 August 2014 (issued every 30 minutes, with the page automatically refreshed every 10 minutes)

About weather observations | Map of weather stations | Latest weather observations for NSW | Other Formats
Station Details ID: 073151 Name: TEMORA AIRPORT Lat: -34.43 Lon: 147.51 Height: 280.5 m
Data from the previous 72 hours. | See also: Recent months at Temora
Date/Time
EST
Temp
°C
App
Temp
°C
Dew
Point
Rel
Hum
%
Delta-T
°C
Wind Press
QNH
hPa
Press
MSL
hPa
Rain
since 9 am
mm
Dir
 
Spd
km/h
Gust
km/h
Spd
kts
Gust
kts
29/01:00pm 16.8 15.1 7.4 54 4.7 SE 6 9 3 5 1026.8 - 0.0
29/12:30pm 16.2 14.8 7.2 55 4.5 SE 4 9 2 5 1027.2 - 0.0
29/12:00pm 16.0 13.9 6.7 54 4.6 W 7 11 4 6 1027.8 1028.3 0.0
29/11:30am 15.9 15.0 9.3 65 3.5 E 4 9 2 5 1028.2 - 0.0
29/11:00am 15.2 13.8 8.7 65 3.4 NNE 6 9 3 5 1028.5 - 0.0
29/10:30am 14.2 12.1 8.2 67 3.0 NNE 9 13 5 7 1028.8 - 0.0
29/10:00am 13.3 11.6 7.7 69 2.8 NE 6 13 3 7 1029.0 - 0.0
29/09:30am 12.2 10.3 7.7 74 2.2 NE 7 11 4 6 1029.0 - 0.0
29/09:00am 11.3 11.1 9.0 86 1.2 CALM 0 9 0 5 1029.1 1029.6 0.0
29/08:30am 7.1 5.2 6.8 98 0.1 SSW 6 6 3 3 1029.1 - 0.0
29/08:00am 3.7 0.9 3.4 98 0.1 SW 7 7 4 4 1029.0 - 0.0
29/07:30am 0.6 -1.4 0.2 97 0.1 CALM 0 0 0 0 1028.7 - 0.0
29/07:00am -0.2 -2.3 -0.6 97 0.1 CALM 0 4 0 2 1028.4 - 0.0
29/06:30am -0.3 -3.5 -0.7 97 0.1 S 6 7 3 4 1028.2 - 0.0
29/06:00am 0.1 -2.3 -0.3 97 0.2 S 2 6 1 3 1028.0 1028.5 0.0
29/05:30am 0.0 -3.8 -0.4 97 0.1 S 9 9 5 5 1027.8 - 0.0
29/05:00am 0.4 -2.7 0.0 97 0.1 S 6 7 3 4 1027.7 - 0.0
29/04:30am 0.2 -3.0 -0.4 96 0.2 SSW 6 7 3 4 1027.7 - 0.0
29/04:00am 0.5 -2.6 -0.1 96 0.2 SSW 6 7 3 4 1027.6 - 0.0
29/03:30am 0.9 -2.3 0.5 97 0.1 S 7 9 4 5 1027.7 - 0.0
29/03:00am 0.4 -2.7 0.0 97 0.1 SSW 6 9 3 5 1027.7 1028.2 0.0
29/02:30am 0.4 -2.9 -0.2 96 0.2 S 7 9 4 5 1027.7 - 0.0
29/02:00am 0.7 -2.6 0.0 95 0.3 S 7 9 4 5 1027.7 - 0.0
29/01:30am 1.7 -1.4 1.1 96 0.2 S 7 9 4 5 1028.0 - 0.0
29/01:00am 1.4 -1.8 0.8 96 0.2 S 7 9 4 5 1028.3 - 0.0
29/12:30am 1.4 -1.8 0.7 95 0.3 S 7 7 4 4 1028.4 - 0.0
29/12:00am 1.9 -1.3 1.0 94 0.3 S 7 9 4 5 1028.5 1029.0 0.0
 
Date/Time
EST
Temp
°C
App
Temp
°C
Dew
Point
Rel
Hum
%
Delta-T
°C
Wind Press
QNH
hPa
Press
MSL
hPa
Rain
since 9 am
mm
Dir
 
Spd
km/h
Gust
km/h
Spd
kts
Gust
kts
28/11:30pm 2.6 0.5 1.7 94 0.4 ESE 2 7 1 4 1028.6 - 0.0
28/11:00pm 3.0 1.3 2.0 93 0.4 CALM 0 0 0 0 1028.6 - 0.0
28/10:30pm 3.5 1.8 1.7 88 0.7 CALM 0 0 0 0 1028.7 - 0.0
28/10:00pm 4.2 1.6 3.2 93 0.4 SSE 6 9 3 5 1028.6 - 0.0
28/09:30pm 3.9 0.5 1.9 87 0.8 S 9 11 5 6 1028.5 - 0.0
28/09:00pm 5.5 3.0 3.7 88 0.8 SSW 6 7 3 4 1028.5 1029.0 0.0
28/08:30pm 5.2 2.5 3.5 89 0.7 SSW 7 11 4 6 1028.5 - 0.0
28/08:00pm 5.6 2.9 3.6 87 0.8 S 7 9 4 5 1028.1 - 0.0
28/07:30pm 7.0 4.5 4.7 85 1.0 S 7 9 4 5 1027.9 - 0.0
28/07:00pm 8.7 6.2 4.7 76 1.8 S 7 9 4 5 1027.8 - 0.0
28/06:30pm 9.8 6.9 4.6 70 2.3 S 9 9 5 5 1027.8 - 0.0
28/06:00pm 13.1 10.7 5.3 59 3.7 SSE 7 9 4 5 1027.6 1028.1 0.0
28/05:30pm 15.4 12.2 5.3 51 4.9 SSE 11 13 6 7 1027.3 - 0.0
28/05:00pm 15.8 12.3 5.4 50 5.0 S 13 17 7 9 1027.1 - 0.0
28/04:30pm 16.7 13.9 5.3 47 5.5 S 9 15 5 8 1026.9 - 0.0
28/04:00pm 17.1 13.5 4.8 44 5.9 SE 13 20 7 11 1026.8 - 0.0
28/03:30pm 17.0 12.3 5.0 45 5.8 S 19 24 10 13 1026.8 - 0.0
28/03:00pm 17.2 13.6 5.2 45 5.8 SE 13 20 7 11 1026.9 1027.4 0.0
28/02:30pm 17.2 13.6 5.2 45 5.8 SSE 13 24 7 13 1027.1 - 0.0
28/02:00pm 17.1 13.1 4.8 44 5.9 ESE 15 22 8 12 1027.1 - 0.0
28/01:30pm 16.7 12.7 4.7 45 5.8 SSE 15 22 8 12 1027.3 - 0.0
28/01:00pm 16.7 13.1 6.8 52 5.0 SSE 15 24 8 13 1027.5 - 0.0
28/12:30pm 16.8 12.9 6.9 52 5.0 ESE 17 32 9 17 1027.8 - 0.0
28/12:00pm 16.1 11.5 5.7 50 5.0 ENE 19 28 10 15 1028.3 1028.8 0.0
28/11:30am 16.0 11.3 6.2 52 4.8 E 20 26 11 14 1028.6 - 0.0
28/11:00am 15.6 12.0 6.9 56 4.3 ESE 15 26 8 14 1028.9 - 0.0
28/10:30am 14.6 11.4 6.7 59 3.9 SE 13 17 7 9 1029.2 - 0.0
28/10:00am 13.6 10.2 5.7 59 3.8 ESE 13 15 7 8 1029.3 - 0.0
28/09:30am 12.6 9.8 5.3 61 3.4 SSE 9 13 5 7 1029.3 - 0.0
28/09:00am 11.4 8.1 4.8 64 3.0 SE 11 15 6 8 1029.2 1029.7 0.0
28/08:30am 7.8 5.8 6.3 90 0.7 WSW 6 7 3 4 1029.1 - 0.0
28/08:00am 4.4 2.0 4.1 98 0.1 SW 6 7 3 4 1028.9 - 0.0
28/07:30am 1.9 -1.0 1.6 98 0.1 SSW 6 9 3 5 1028.7 - 0.0
28/07:00am -0.1 -3.5 -0.5 97 0.1 SSW 7 9 4 5 1028.3 - 0.0
28/06:30am 0.3 -2.8 -0.1 97 0.1 SSW 6 7 3 4 1028.1 - 0.0
28/06:00am -0.2 -3.6 -0.9 95 0.2 SW 7 9 4 5 1028.0 1028.5 0.0
28/05:30am 1.2 -0.7 0.8 97 0.2 CALM 0 0 0 0 1027.7 - 0.0
28/05:00am -0.3 -3.6 -1.1 94 0.3 S 6 7 3 4 1027.7 - 0.0
28/04:30am 0.1 -2.8 -0.9 93 0.4 SE 4 6 2 3 1027.7 - 0.0
28/04:00am 1.8 -1.3 1.1 95 0.3 S 7 9 4 5 1027.8 - 0.0
28/03:30am 1.6 -1.6 0.9 95 0.3 SSW 7 9 4 5 1027.9 - 0.0
28/03:00am 1.5 -1.6 0.2 91 0.5 SSW 6 9 3 5 1027.8 1028.3 0.0
28/02:30am 2.4 -0.8 -0.4 82 1.0 SSE 6 7 3 4 1027.6 - 0.0
28/02:27am 3.0 -0.2 -0.3 79 1.2 SE 6 11 3 6 1027.6 - 0.0
28/02:00am 8.2 5.0 5.1 81 1.4 E 11 15 6 8 1027.4 - 0.0
28/01:30am 4.5 2.0 1.4 80 1.2 SE 4 7 2 4 1027.7 - 0.0
28/01:00am 8.5 5.2 4.7 77 1.7 E 11 15 6 8 1028.0 - 0.0
28/12:30am 9.0 5.4 5.0 76 1.8 E 13 19 7 10 1027.8 - 0.0
28/12:00am 8.6 5.7 4.6 76 1.8 E 9 13 5 7 1027.9 1028.4 0.0
 
Date/Time
EST
Temp
°C
App
Temp
°C
Dew
Point
Rel
Hum
%
Delta-T
°C
Wind Press
QNH
hPa
Press
MSL
hPa
Rain
since 9 am
mm
Dir
 
Spd
km/h
Gust
km/h
Spd
kts
Gust
kts
27/11:30pm 8.7 5.4 4.5 75 1.9 ESE 11 13 6 7 1027.8 - 0.0
27/11:00pm 9.2 5.9 4.4 72 2.2 ESE 11 17 6 9 1027.8 - 0.0
27/10:30pm 9.5 5.8 4.5 71 2.3 ESE 13 17 7 9 1027.8 - 0.0
27/10:00pm 9.6 6.2 6.0 78 1.7 ESE 13 19 7 10 1027.7 - 0.0
27/09:52pm 7.8 4.9 6.7 93 0.5 ESE 11 19 6 10 1027.6 - 0.0
27/09:30pm 2.3 -1.6 1.3 93 0.4 SSE 11 11 6 6 1027.6 - 0.0
27/09:00pm 4.5 1.3 3.0 90 0.6 SSE 9 9 5 5 1027.4 1027.9 0.0
27/08:30pm 4.9 1.9 4.0 94 0.4 S 9 11 5 6 1027.3 - 0.0
27/08:00pm 5.1 2.3 3.0 86 0.9 S 7 9 4 5 1027.2 - 0.0
27/07:30pm 6.5 4.0 4.8 89 0.8 SSW 7 9 4 5 1027.0 - 0.0
27/07:00pm 7.3 4.6 3.5 77 1.6 S 7 9 4 5 1026.8 - 0.0
27/06:30pm 9.5 7.0 4.5 71 2.3 SSE 7 7 4 4 1026.7 - 0.0
27/06:00pm 13.4 11.0 5.1 57 3.9 ESE 7 9 4 5 1026.5 1027.0 0.0
27/05:30pm 14.8 12.0 5.1 52 4.6 ESE 9 13 5 7 1026.1 - 0.0
27/05:00pm 15.5 11.4 4.2 47 5.3 ESE 15 20 8 11 1026.0 - 0.0
27/04:30pm 16.4 12.6 6.0 50 5.1 SE 15 24 8 13 1025.8 - 0.0
27/04:00pm 16.6 12.5 6.1 50 5.2 SE 17 24 9 13 1025.5 - 0.0
27/03:30pm 16.8 12.7 6.0 49 5.3 ESE 17 24 9 13 1025.4 - 0.0
27/03:00pm 16.9 12.4 6.1 49 5.3 SE 19 28 10 15 1025.4 1025.9 0.0
27/02:30pm 16.8 12.9 7.2 53 4.9 SSE 17 26 9 14 1025.6 - 0.0
27/02:00pm 16.6 12.4 5.9 49 5.3 SE 17 26 9 14 1025.7 - 0.0
27/01:30pm 17.0 12.6 6.5 50 5.2 ESE 19 26 10 14 1025.8 - 0.0
27/01:00pm 17.2 13.5 7.8 54 4.8 E 17 28 9 15 1026.0 - 0.0
27/12:30pm 16.7 12.5 7.6 55 4.6 E 19 26 10 14 1026.3 - 0.0
27/12:00pm 15.9 11.6 6.9 55 4.5 E 19 28 10 15 1026.7 1027.2 0.0
27/11:30am 15.9 11.0 7.1 56 4.4 E 22 32 12 17 1027.0 - 0.0
27/11:00am 15.4 9.6 6.4 55 4.4 E 26 35 14 19 1027.4 - 0.0
27/10:30am 14.9 9.5 6.2 56 4.3 E 24 35 13 19 1027.5 - 0.0
27/10:00am 14.3 7.2 5.7 56 4.1 ESE 32 41 17 22 1027.5 - 0.0
27/09:30am 13.8 7.5 5.9 59 3.8 ESE 28 41 15 22 1027.3 - 0.0
27/09:00am 13.0 7.1 5.9 62 3.4 ESE 26 41 14 22 1027.1 1027.6 0.0
27/08:30am 12.0 7.5 5.9 66 2.9 ESE 19 32 10 17 1027.1 - 0.0
27/08:00am 10.9 7.6 6.3 73 2.2 SE 13 20 7 11 1027.0 - 0.0
27/07:52am 10.0 7.6 6.9 81 1.5 SE 9 20 5 11 1027.0 - 0.0
27/07:30am 5.0 2.1 4.4 96 0.3 S 9 11 5 6 1026.7 - 0.0
27/07:00am 3.9 0.7 3.0 94 0.4 S 9 9 5 5 1026.4 - 0.0
27/06:30am 6.6 3.7 4.8 88 0.8 SE 9 11 5 6 1026.1 - 0.0
27/06:00am 8.0 5.1 4.4 78 1.6 SSE 9 13 5 7 1025.7 1026.2 0.0
27/05:30am 9.3 5.9 5.7 78 1.7 SE 13 17 7 9 1025.4 - 0.0
27/05:00am 9.5 6.1 6.0 79 1.6 SE 13 17 7 9 1025.1 - 0.0
27/04:30am 9.1 6.5 6.0 81 1.4 ESE 9 13 5 7 1025.1 - 0.0
27/04:00am 9.7 6.8 6.4 80 1.6 ESE 11 17 6 9 1025.2 - 0.0
27/03:30am 9.8 6.9 6.7 81 1.5 ESE 11 15 6 8 1025.1 - 0.0
27/03:00am 9.9 7.1 6.8 81 1.5 SE 11 17 6 9 1025.3 1025.8 0.0
27/02:30am 10.4 6.8 6.9 79 1.7 SE 15 22 8 12 1025.5 - 0.0
27/02:00am 10.2 6.6 6.9 80 1.6 ESE 15 20 8 11 1025.7 - 0.0
27/01:30am 10.0 6.5 7.1 82 1.4 SE 15 20 8 11 1025.7 - 0.0
27/01:00am 9.7 6.5 6.8 82 1.4 SE 13 15 7 8 1025.8 - 0.0
27/12:30am 10.0 6.8 6.9 81 1.5 SE 13 17 7 9 1025.8 - 0.0
27/12:00am 10.9 7.4 7.4 79 1.7 ESE 15 20 8 11 1025.8 1026.3 0.0
 
Date/Time
EST
Temp
°C
App
Temp
°C
Dew
Point
Rel
Hum
%
Delta-T
°C
Wind Press
QNH
hPa
Press
MSL
hPa
Rain
since 9 am
mm
Dir
 
Spd
km/h
Gust
km/h
Spd
kts
Gust
kts
26/11:30pm 10.5 8.1 7.2 80 1.6 ESE 9 17 5 9 1026.0 - 0.0
26/11:00pm 11.1 8.0 7.4 78 1.8 SE 13 19 7 10 1025.8 - 0.0
26/10:30pm 11.9 8.1 7.6 75 2.1 E 17 24 9 13 1025.8 - 0.0
26/10:00pm 11.5 7.7 7.4 76 2.0 ESE 17 22 9 12 1025.6 - 0.0
26/09:30pm 11.3 7.8 7.4 77 1.9 SE 15 22 8 12 1025.5 - 0.0
26/09:00pm 11.0 8.3 7.5 79 1.7 SE 11 17 6 9 1025.5 1026.0 0.0
26/08:30pm 11.1 8.4 7.2 77 1.9 SSE 11 15 6 8 1025.2 - 0.0
26/08:00pm 11.6 8.6 7.5 76 2.0 SE 13 17 7 9 1025.1 - 0.0
26/07:30pm 11.0 8.7 7.3 78 1.8 SSE 9 15 5 8 1024.9 - 0.0
26/07:00pm 12.5 9.0 7.4 71 2.5 SE 15 20 8 11 1024.6 - 0.0
26/06:30pm 13.5 9.4 7.9 69 2.8 ESE 19 26 10 14 1024.1 - 0.0
26/06:00pm 13.3 8.3 8.0 70 2.6 ESE 24 33 13 18 1023.6 1024.1 0.0
26/05:30pm 14.1 8.7 7.9 66 3.1 ESE 26 37 14 20 1023.4 - 0.0
26/05:00pm 14.9 10.4 8.4 65 3.3 ESE 22 35 12 19 1023.4 - 0.0
26/04:30pm 15.5 10.6 9.8 69 3.0 ESE 26 35 14 19 1023.3 - 0.0
26/04:00pm 15.1 9.2 9.0 67 3.2 ESE 30 41 16 22 1023.1 - 0.0
26/03:45pm 15.1 9.2 9.2 68 3.1 ESE 30 48 16 26 1023.1 - 0.0
26/03:30pm 15.4 9.5 8.9 65 3.4 ESE 30 44 16 24 1023.0 - 0.0
26/03:13pm 16.5 10.8 8.5 59 4.1 ESE 28 52 15 28 1022.9 - 0.0
26/03:00pm 15.7 9.1 8.7 63 3.6 ESE 33 50 18 27 1022.9 1023.3 0.0
26/02:52pm 16.0 9.6 8.5 61 3.9 ESE 32 50 17 27 1022.9 - 0.0
26/02:30pm 16.0 10.0 8.5 61 3.9 ESE 30 46 16 25 1022.9 - 0.0
26/02:00pm 15.8 9.3 8.1 60 3.9 E 32 46 17 25 1023.0 - 0.0
26/01:30pm 15.4 10.5 8.4 63 3.6 ESE 24 33 13 18 1023.1 - 0.0

Other Formats:

Comma delimited format used in spreadsheet applications
http://www.bom.gov.au/fwo/IDN60801/IDN60801.95722.axf

JavaScript Object Notation format (JSON) in row-major order
http://www.bom.gov.au/fwo/IDN60801/IDN60801.95722.json